Terminal Aerodrome Forecast
Issued by NWS

Home | Current Version | Previous Version | Text Only | Print | Product List | Glossary On
Versions: 1 2 3 4 5 6 7 8 9 10 11 12 13
113
FTUS43 KMPX 251724
TAFRWF
TAF
KRWF 251724Z 2518/2618 32009KT P6SM VCSH BKN008 OVC012
     FM251900 33011KT P6SM SHRA BKN015 OVC035
      TEMPO 2519/2522 6SM -SHRA BR BKN035
     FM260300 34014G22KT 4SM -SHRA BR OVC008
     FM261200 34013G22KT P6SM -SHRA OVC008=

USA.gov is the U.S. government's official web portal to all federal, state and local government web resources and services.